Kezdőlap
METAR-TAF:

METAR-TAF

Repülőterek :

Newton Municipal Airport

Newton, Iowa, Amerikai Egyesült Államok

földrajzi szélesség: 41-41N, földrajzi hosszúság: 093-01W, magasság: 290 m

Jelenlegi meteorológiai megfigyelések

A jelentés 22 perccel ezelõtt készült, 09:55 UTC
Nyugat-északnyugati szél 3 kt
Hőmérséklet 5°C
Páratartalom 100%
Légköri nyomás 1001 hPa
Borult 200 lábon
köd

METAR: KTNU 090955Z AUTO 30003KT M1/4SM FG OVC002 05/05 A2955 RMK A01

Idő: 04:17 (10:17 UTC)


TAF: hiányzik

Meteorológiai megfigyelések és előrejelzések több, mint 4000 repülőtéren (METAR és TAF jelentéseket).

A térképen piros és sárga pontok jelzik az elérhető meteorológiai állomásokat.

Mozgassa az egeret a pont fölött, hogy megjelenjen az állomás neve.

Azután kattintson az időjárási megfigyelések és előrejelzések megtekintéséhez.

A térkép megváltoztatása: kattintson a fekete keresztel jelölt zöld gombra ráközelítéshez, a vonallal jelölt zöld gombra távolításhoz, vagy a zöld nyilakra a szomszédos térképek eléréséhez.


METAR-TAF: